Time;durP1;ratioP1;P1;durP2;ratioP2;P2;SDS_P1;SDS_P2;PMS_P1;PMS_P2;Temp;Humidity;BMP_temperature;BMP_pressure;BME280_temperature;BME280_humidity;BME280_pressure;Samples;Min_cycle;Max_cycle;Signal;HPM_P1;HPM_P2
2022/01/03 00:01:46;;;;;;;6.93;1.27;;;7.80;99.90;;;;;;5089886;28;20111;-63
2022/01/03 00:04:14;;;;;;;6.05;1.10;;;7.80;99.90;;;;;;5089407;28;20066;-61
2022/01/03 00:06:39;;;;;;;4.55;1.15;;;7.80;99.90;;;;;;5086101;28;20072;-62
2022/01/03 00:09:06;;;;;;;;;;;7.70;99.90;;;;;;5092803;28;20063;-62
2022/01/03 00:11:32;;;;;;;10.38;1.52;;;7.80;99.90;;;;;;5082428;28;19916;-62
2022/01/03 00:13:57;;;;;;;;;;;7.70;99.90;;;;;;5087935;28;20401;-63
2022/01/03 00:16:24;;;;;;;12.18;3.15;;;7.70;99.90;;;;;;5084129;28;19923;-62
2022/01/03 00:18:52;;;;;;;5.13;1.88;;;7.70;99.90;;;;;;5077594;28;20047;-62
2022/01/03 00:21:19;;;;;;;6.18;2.28;;;7.70;99.90;;;;;;5078182;28;20051;-62
2022/01/03 00:24:01;;;;;;;6.68;1.75;;;7.70;99.90;;;;;;5073547;28;20040;-63
2022/01/03 00:26:29;;;;;;;4.40;1.75;;;7.60;99.90;;;;;;5070519;28;20404;-63
2022/01/03 00:29:01;;;;;;;7.22;2.05;;;7.60;99.90;;;;;;5078200;28;20040;-61
2022/01/03 00:31:34;;;;;;;6.00;2.08;;;7.50;99.90;;;;;;5075822;28;20050;-62
2022/01/03 00:34:04;;;;;;;7.80;2.50;;;7.60;99.90;;;;;;5081673;28;20047;-62
2022/01/03 00:36:30;;;;;;;8.18;2.10;;;7.60;99.90;;;;;;5085629;28;20112;-63
2022/01/03 00:38:56;;;;;;;10.75;2.50;;;7.60;99.90;;;;;;5070449;28;20119;-63
2022/01/03 00:41:22;;;;;;;;;;;7.60;99.90;;;;;;5071978;28;20119;-63
2022/01/03 00:43:52;;;;;;;9.68;2.17;;;7.50;99.90;;;;;;5071276;28;19995;-62
2022/01/03 00:46:18;;;;;;;8.40;2.30;;;7.50;99.90;;;;;;5083666;28;20426;-61
2022/01/03 00:48:44;;;;;;;9.27;2.53;;;7.50;99.90;;;;;;5075115;28;20036;-62
2022/01/03 00:51:13;;;;;;;13.32;2.80;;;7.50;99.90;;;;;;5076947;28;20064;-61
2022/01/03 00:53:39;;;;;;;7.38;2.38;;;7.40;99.90;;;;;;5072837;28;20028;-63
2022/01/03 00:56:12;;;;;;;11.95;2.38;;;7.50;99.90;;;;;;5068185;28;20048;-62
2022/01/03 00:58:52;;;;;;;10.63;2.67;;;7.50;99.90;;;;;;5067192;28;20041;-63
2022/01/03 01:01:19;;;;;;;7.97;2.60;;;7.50;99.90;;;;;;5084920;28;20063;-62
2022/01/03 01:03:47;;;;;;;9.90;2.22;;;7.40;99.90;;;;;;5062579;28;20036;-62
2022/01/03 01:06:14;;;;;;;12.52;2.60;;;7.50;99.90;;;;;;5074530;28;20555;-61
2022/01/03 01:08:41;;;;;;;10.10;1.90;;;7.50;99.90;;;;;;5073035;28;20040;-62
2022/01/03 01:11:07;;;;;;;11.05;2.33;;;7.40;99.90;;;;;;5068575;28;20036;-61
2022/01/03 01:13:35;;;;;;;10.05;2.58;;;7.30;99.90;;;;;;5065867;28;20041;-63
2022/01/03 01:16:11;;;;;;;5.10;1.60;;;7.30;99.90;;;;;;5073941;28;20033;-63
2022/01/03 01:18:39;;;;;;;5.85;2.10;;;7.30;99.90;;;;;;5066967;28;20111;-62
2022/01/03 01:21:06;;;;;;;12.07;1.80;;;7.20;99.90;;;;;;5077654;28;20056;-63
2022/01/03 01:23:32;;;;;;;10.77;2.15;;;7.30;99.90;;;;;;5072371;28;20492;-62
2022/01/03 01:28:42;;;;;;;8.85;2.63;;;7.30;99.90;;;;;;5071729;28;20268;-63
2022/01/03 01:31:10;;;;;;;6.63;2.00;;;7.20;99.90;;;;;;5072547;28;20036;-62
2022/01/03 01:33:39;;;;;;;8.75;2.20;;;7.30;99.90;;;;;;5066617;28;20041;-64
2022/01/03 01:36:06;;;;;;;7.85;2.05;;;7.30;99.90;;;;;;5068975;28;20048;-62
2022/01/03 01:38:34;;;;;;;9.30;3.03;;;7.20;99.90;;;;;;5072225;28;20123;-62
2022/01/03 01:41:02;;;;;;;7.35;1.80;;;7.30;99.90;;;;;;5075780;28;20067;-62
2022/01/03 01:43:34;;;;;;;15.63;2.85;;;7.20;99.90;;;;;;5064800;28;20457;-65
2022/01/03 01:46:09;;;;;;;9.30;1.85;;;7.20;99.90;;;;;;5073141;28;20076;-63
2022/01/03 01:48:36;;;;;;;14.15;2.30;;;7.30;99.90;;;;;;5072947;28;20063;-64
2022/01/03 01:51:03;;;;;;;8.63;2.17;;;7.30;99.90;;;;;;5075667;28;20536;-63
2022/01/03 01:53:29;;;;;;;16.10;2.40;;;7.20;99.90;;;;;;5072634;28;20033;-62
2022/01/03 01:55:57;;;;;;;;;;;7.20;99.90;;;;;;5068553;28;20039;-63
2022/01/03 01:59:03;;;;;;;17.52;2.33;;;7.20;99.90;;;;;;5069864;28;20387;-63
2022/01/03 02:01:47;;;;;;;8.18;2.42;;;7.10;99.90;;;;;;5073603;28;20040;-66
2022/01/03 02:04:31;;;;;;;7.68;1.55;;;7.00;99.90;;;;;;5077919;28;20040;-63
2022/01/03 02:07:12;;;;;;;12.48;2.22;;;7.00;99.90;;;;;;5062047;28;20640;-66
2022/01/03 02:09:57;;;;;;;11.43;3.38;;;7.10;99.90;;;;;;5077764;28;20067;-63
2022/01/03 02:12:27;;;;;;;12.18;2.22;;;7.10;99.90;;;;;;5069163;28;20050;-62
2022/01/03 02:14:57;;;;;;;8.50;2.03;;;7.00;99.90;;;;;;5078926;28;20040;-63
2022/01/03 02:17:23;;;;;;;9.52;2.13;;;7.00;99.90;;;;;;5067894;28;20449;-63
2022/01/03 02:20:12;;;;;;;15.10;3.00;;;7.00;99.90;;;;;;5079609;28;20111;-65
2022/01/03 02:22:39;;;;;;;11.30;1.92;;;7.00;99.90;;;;;;5060834;28;20050;-64
2022/01/03 02:25:07;;;;;;;13.55;2.50;;;7.00;99.90;;;;;;5070226;28;20087;-63
2022/01/03 02:27:34;;;;;;;14.32;2.58;;;7.00;99.90;;;;;;5059848;28;20041;-62
2022/01/03 02:30:00;;;;;;;17.30;2.55;;;7.00;99.90;;;;;;5080701;28;20129;-66
2022/01/03 02:32:26;;;;;;;19.25;2.35;;;7.00;99.90;;;;;;5066333;28;20071;-64
2022/01/03 02:34:52;;;;;;;;;;;7.00;99.90;;;;;;5079138;28;20118;-62
2022/01/03 02:37:17;;;;;;;15.98;2.80;;;7.00;99.90;;;;;;5067507;28;19916;-64
2022/01/03 02:39:43;;;;;;;;;;;7.00;99.90;;;;;;5074331;28;20167;-60
2022/01/03 02:42:10;;;;;;;11.45;2.22;;;7.00;99.90;;;;;;5067685;28;19923;-64
2022/01/03 02:44:36;;;;;;;11.93;2.30;;;7.00;99.90;;;;;;5078783;28;20512;-62
2022/01/03 02:47:02;;;;;;;;;;;7.10;99.90;;;;;;5071696;28;20060;-62
2022/01/03 02:49:27;;;;;;;24.13;3.15;;;7.00;99.90;;;;;;5072086;28;19920;-62
2022/01/03 02:51:53;;;;;;;16.17;3.45;;;7.00;99.90;;;;;;5072786;28;20064;-63
2022/01/03 02:54:18;;;;;;;21.40;2.85;;;7.00;99.90;;;;;;5069984;28;20037;-63
2022/01/03 02:56:44;;;;;;;;;;;6.90;99.90;;;;;;5065753;28;20033;-62
2022/01/03 02:59:20;;;;;;;15.10;2.35;;;6.90;99.90;;;;;;5076247;28;19938;-62
2022/01/03 03:01:47;;;;;;;;;;;6.90;99.90;;;;;;5072676;28;20036;-62
2022/01/03 03:04:12;;;;;;;14.00;1.97;;;6.90;99.90;;;;;;5078457;28;19922;-63
2022/01/03 03:06:38;;;;;;;;;;;6.90;99.90;;;;;;5074128;28;20036;-63
2022/01/03 03:09:07;;;;;;;18.02;2.85;;;6.90;99.90;;;;;;5075427;28;19962;-64
2022/01/03 03:11:38;;;;;;;24.15;4.15;;;6.90;99.90;;;;;;5067061;28;20040;-62
2022/01/03 03:14:04;;;;;;;22.52;3.17;;;6.80;99.90;;;;;;5066872;28;20044;-62
2022/01/03 03:16:30;;;;;;;13.77;2.80;;;6.90;99.90;;;;;;5066586;28;20041;-62
2022/01/03 03:18:55;;;;;;;;;;;6.80;99.90;;;;;;5067782;28;20047;-63
2022/01/03 03:21:21;;;;;;;17.25;3.33;;;6.80;99.90;;;;;;5068462;28;20391;-62
2022/01/03 03:23:47;;;;;;;10.88;2.05;;;6.80;99.90;;;;;;5071970;28;20439;-61
2022/01/03 03:26:12;;;;;;;;;;;6.80;99.90;;;;;;5073485;28;20052;-63
2022/01/03 03:28:38;;;;;;;14.30;2.70;;;6.90;99.90;;;;;;5076800;28;19916;-61
2022/01/03 03:31:04;;;;;;;;;;;6.80;99.90;;;;;;5062080;28;20404;-61
2022/01/03 03:33:32;;;;;;;32.88;3.22;;;6.80;99.90;;;;;;5066756;28;20003;-62
2022/01/03 03:35:59;;;;;;;21.48;5.05;;;6.80;99.90;;;;;;5068304;28;20036;-60
2022/01/03 03:38:26;;;;;;;17.70;3.28;;;6.70;99.90;;;;;;5069650;28;20136;-63
2022/01/03 03:40:53;;;;;;;21.95;4.15;;;6.70;99.90;;;;;;5069300;28;20087;-63
2022/01/03 03:43:19;;;;;;;17.30;3.22;;;6.70;99.90;;;;;;5067809;28;20050;-63
2022/01/03 03:45:46;;;;;;;19.40;2.80;;;6.70;99.90;;;;;;5062289;28;20564;-62
2022/01/03 03:48:12;;;;;;;17.90;3.30;;;6.70;99.90;;;;;;5065572;28;20086;-62
2022/01/03 03:50:38;;;;;;;19.23;3.10;;;6.70;99.90;;;;;;5070023;28;20499;-63
2022/01/03 03:53:04;;;;;;;18.35;3.05;;;6.70;99.90;;;;;;5073196;28;20044;-63
2022/01/03 03:55:31;;;;;;;21.88;2.88;;;6.70;99.90;;;;;;5071524;28;20115;-63
2022/01/03 03:57:57;;;;;;;15.93;2.53;;;6.80;99.90;;;;;;5074428;28;20187;-62
2022/01/03 04:00:24;;;;;;;22.90;2.75;;;6.80;99.90;;;;;;5074302;28;20442;-60
2022/01/03 04:02:49;;;;;;;23.27;3.53;;;6.90;99.90;;;;;;5068100;28;20067;-61
2022/01/03 04:05:15;;;;;;;;;;;6.90;99.90;;;;;;5081063;28;20090;-63
2022/01/03 04:07:41;;;;;;;18.65;2.53;;;6.80;99.90;;;;;;5069792;28;19920;-62
2022/01/03 04:10:08;;;;;;;16.25;2.58;;;6.90;99.90;;;;;;5083082;28;20036;-62
2022/01/03 04:12:34;;;;;;;17.17;2.67;;;6.80;99.90;;;;;;5065208;28;20036;-63
2022/01/03 04:14:59;;;;;;;;;;;6.80;99.90;;;;;;5082247;28;20036;-62
2022/01/03 04:17:25;;;;;;;17.95;3.78;;;6.80;99.90;;;;;;5082897;28;19923;-63
2022/01/03 04:19:50;;;;;;;14.38;3.30;;;6.80;99.90;;;;;;5083534;28;20452;-62
2022/01/03 04:22:16;;;;;;;;;;;6.90;99.90;;;;;;5070564;28;20036;-61
2022/01/03 04:24:42;;;;;;;40.13;4.90;;;6.80;99.90;;;;;;5073822;28;19995;-62
2022/01/03 04:27:07;;;;;;;14.30;2.80;;;6.80;99.90;;;;;;5069650;28;20131;-61
2022/01/03 04:29:33;;;;;;;;;;;6.80;99.90;;;;;;5079398;28;20029;-62
2022/01/03 04:31:59;;;;;;;23.75;3.60;;;6.80;99.90;;;;;;5074199;28;19943;-60
2022/01/03 04:34:25;;;;;;;20.05;2.38;;;6.80;99.90;;;;;;5080184;28;20035;-63
2022/01/03 04:36:50;;;;;;;15.10;3.00;;;6.80;99.90;;;;;;5076098;28;20032;-62
2022/01/03 04:39:16;;;;;;;18.60;3.80;;;6.80;99.90;;;;;;5076884;28;20115;-63
2022/01/03 04:41:42;;;;;;;;;;;6.80;99.90;;;;;;5075854;28;20048;-63
2022/01/03 04:44:07;;;;;;;16.10;2.17;;;6.80;99.90;;;;;;5076347;28;19920;-64
2022/01/03 04:46:35;;;;;;;14.50;2.72;;;6.80;99.90;;;;;;5075968;28;20036;-63
2022/01/03 04:49:01;;;;;;;14.82;2.80;;;6.70;99.90;;;;;;5071706;28;20074;-62
2022/01/03 04:51:27;;;;;;;14.10;2.95;;;6.80;99.90;;;;;;5067279;28;20048;-62
2022/01/03 04:53:52;;;;;;;24.77;3.08;;;6.80;99.90;;;;;;5075355;28;20132;-63
2022/01/03 04:56:18;;;;;;;21.25;2.65;;;6.70;99.90;;;;;;5069448;28;20041;-63
2022/01/03 04:58:44;;;;;;;;;;;6.70;99.90;;;;;;5072796;28;20068;-62
2022/01/03 05:01:10;;;;;;;20.02;3.55;;;6.70;99.90;;;;;;5072788;28;19982;-62
2022/01/03 05:03:36;;;;;;;26.80;2.80;;;6.70;99.90;;;;;;5074410;28;20043;-62
2022/01/03 05:06:02;;;;;;;;;;;6.70;99.90;;;;;;5074143;28;20041;-63
2022/01/03 05:08:29;;;;;;;22.27;2.88;;;6.70;99.90;;;;;;5073472;28;19920;-63
2022/01/03 05:10:56;;;;;;;24.23;4.20;;;6.80;99.90;;;;;;5077833;28;20535;-63
2022/01/03 05:13:21;;;;;;;19.63;3.63;;;6.70;99.90;;;;;;5071199;28;20052;-63
2022/01/03 05:15:47;;;;;;;;;;;6.70;99.90;;;;;;5073306;28;20040;-61
2022/01/03 05:18:13;;;;;;;20.80;2.88;;;6.70;99.90;;;;;;5065158;28;20345;-62
2022/01/03 05:20:38;;;;;;;;;;;6.70;99.90;;;;;;5067202;28;20033;-62
2022/01/03 05:23:04;;;;;;;19.60;3.45;;;6.70;99.90;;;;;;5068510;28;20388;-61
2022/01/03 05:25:30;;;;;;;20.85;3.53;;;6.70;99.90;;;;;;5067736;28;20041;-63
2022/01/03 05:27:55;;;;;;;;;;;6.70;99.90;;;;;;5071189;28;20068;-61
2022/01/03 05:30:21;;;;;;;19.73;4.00;;;6.70;99.90;;;;;;5079929;28;19992;-62
2022/01/03 05:32:46;;;;;;;;;;;6.70;99.90;;;;;;5065557;28;20039;-62
2022/01/03 05:35:12;;;;;;;15.45;3.00;;;6.60;99.90;;;;;;5071486;28;19917;-63
2022/01/03 05:37:38;;;;;;;26.48;3.75;;;6.60;99.90;;;;;;5067905;28;20133;-61
2022/01/03 05:40:05;;;;;;;19.50;4.07;;;6.60;99.90;;;;;;5078077;28;20472;-61
2022/01/03 05:42:31;;;;;;;16.30;3.67;;;6.50;99.90;;;;;;5066751;28;20116;-60
2022/01/03 05:44:57;;;;;;;17.90;4.95;;;6.60;99.90;;;;;;5081227;28;20142;-61
2022/01/03 05:47:24;;;;;;;21.42;4.25;;;6.60;99.90;;;;;;5068142;28;20147;-60
2022/01/03 05:49:49;;;;;;;16.80;4.70;;;6.60;99.90;;;;;;5076526;28;20082;-61
2022/01/03 05:52:15;;;;;;;13.10;3.90;;;6.60;99.90;;;;;;5067542;28;20629;-62
2022/01/03 05:54:40;;;;;;;15.88;3.55;;;6.60;99.90;;;;;;5069411;28;20782;-60
2022/01/03 05:57:06;;;;;;;;;;;6.60;99.90;;;;;;5066957;28;20060;-62
2022/01/03 05:59:32;;;;;;;14.30;4.28;;;6.50;99.90;;;;;;5070468;28;20435;-61
2022/01/03 06:01:57;;;;;;;16.58;3.60;;;6.60;99.90;;;;;;5068772;28;20078;-61
2022/01/03 06:04:35;;;;;;;16.40;4.28;;;6.50;99.90;;;;;;5075417;28;20040;-60
2022/01/03 06:07:05;;;;;;;12.02;3.15;;;6.50;99.90;;;;;;5064235;28;20040;-61
2022/01/03 06:09:31;;;;;;;17.83;4.13;;;6.50;99.90;;;;;;5074272;28;20028;-59
2022/01/03 06:11:58;;;;;;;16.50;4.38;;;6.40;99.90;;;;;;5067486;28;20086;-60
2022/01/03 06:14:24;;;;;;;17.67;4.07;;;6.40;99.90;;;;;;5070497;28;20045;-57
2022/01/03 06:16:50;;;;;;;17.13;3.95;;;6.40;99.90;;;;;;5061206;28;20091;-60
2022/01/03 06:19:17;;;;;;;13.27;4.05;;;6.40;99.90;;;;;;5076328;28;20061;-60
2022/01/03 06:21:44;;;;;;;22.42;4.47;;;6.40;99.90;;;;;;5067887;28;20554;-60
2022/01/03 06:24:14;;;;;;;13.25;3.45;;;6.40;99.90;;;;;;5068219;28;20443;-59
2022/01/03 06:26:42;;;;;;;18.50;3.47;;;6.40;99.90;;;;;;5064417;28;20035;-60
2022/01/03 06:29:09;;;;;;;21.98;4.20;;;6.40;99.90;;;;;;5075482;28;20503;-62
2022/01/03 06:31:34;;;;;;;14.48;3.35;;;6.40;99.90;;;;;;5069400;28;20512;-61
2022/01/03 06:34:01;;;;;;;20.60;3.35;;;6.50;99.90;;;;;;5075566;28;20150;-62
2022/01/03 06:36:27;;;;;;;16.17;4.20;;;6.50;99.90;;;;;;5075032;28;20059;-61
2022/01/03 06:38:52;;;;;;;;;;;6.50;99.90;;;;;;5073989;28;20039;-62
2022/01/03 06:41:18;;;;;;;18.52;4.00;;;6.50;99.90;;;;;;5073426;28;20043;-62
2022/01/03 06:43:44;;;;;;;16.88;3.05;;;6.50;99.90;;;;;;5073046;28;20036;-62
2022/01/03 06:46:10;;;;;;;24.02;3.42;;;6.50;99.90;;;;;;5076198;28;20052;-62
2022/01/03 06:48:35;;;;;;;;;;;6.50;99.90;;;;;;5073416;28;20028;-60
2022/01/03 06:51:01;;;;;;;18.98;3.53;;;6.50;99.90;;;;;;5074453;28;19956;-61
2022/01/03 06:53:26;;;;;;;14.15;3.08;;;6.50;99.90;;;;;;5067859;28;20445;-60
2022/01/03 06:55:52;;;;;;;15.48;2.90;;;6.50;99.90;;;;;;5064221;28;20028;-62
2022/01/03 06:58:18;;;;;;;19.88;3.65;;;6.50;99.90;;;;;;5066047;28;20052;-61
2022/01/03 07:00:44;;;;;;;;;;;6.50;99.90;;;;;;5066088;28;20123;-61
2022/01/03 07:03:09;;;;;;;20.02;3.13;;;6.50;99.90;;;;;;5065674;28;19916;-60
2022/01/03 07:05:35;;;;;;;20.73;3.65;;;6.50;99.90;;;;;;5076238;28;20120;-62
2022/01/03 07:08:00;;;;;;;;;;;6.50;99.90;;;;;;5068166;28;20101;-61
2022/01/03 07:10:26;;;;;;;23.08;3.13;;;6.40;99.90;;;;;;5077057;28;20559;-61
2022/01/03 07:12:53;;;;;;;14.55;3.47;;;6.50;99.90;;;;;;5068454;28;20119;-61
2022/01/03 07:20:52;;;;;;;15.20;3.17;;;6.40;99.90;;;;;;5064718;28;20374;-61
2022/01/03 07:23:19;;;;;;;18.10;3.40;;;6.40;99.90;;;;;;5069173;28;20036;-61
2022/01/03 07:25:45;;;;;;;15.55;3.33;;;6.40;99.90;;;;;;5067260;28;20049;-60
2022/01/03 07:28:13;;;;;;;15.90;3.00;;;6.40;99.90;;;;;;5073185;28;20032;-61
2022/01/03 07:30:38;;;;;;;13.52;3.72;;;6.40;99.90;;;;;;5079423;28;20071;-59
2022/01/03 07:33:04;;;;;;;20.63;3.70;;;6.40;99.90;;;;;;5071035;28;20067;-61
2022/01/03 07:35:30;;;;;;;23.42;4.57;;;6.40;99.90;;;;;;5068023;28;20033;-61
2022/01/03 07:37:55;;;;;;;;;;;6.40;99.90;;;;;;5073634;28;20036;-60
2022/01/03 07:40:22;;;;;;;20.05;3.90;;;6.50;99.90;;;;;;5075156;28;19923;-61
2022/01/03 07:42:47;;;;;;;19.27;3.85;;;6.50;99.90;;;;;;5067556;28;20032;-61
2022/01/03 07:45:13;;;;;;;;;;;6.50;99.90;;;;;;5047391;28;20040;-61
2022/01/03 07:47:39;;;;;;;14.60;2.50;;;6.50;99.90;;;;;;5071890;28;19930;-61
2022/01/03 07:50:06;;;;;;;19.48;3.30;;;6.50;99.90;;;;;;5080228;28;20047;-61
2022/01/03 07:52:32;;;;;;;21.63;3.53;;;6.50;99.90;;;;;;5070247;28;20714;-62
2022/01/03 07:54:58;;;;;;;23.00;3.58;;;6.50;99.90;;;;;;5068101;28;20047;-61
2022/01/03 07:57:23;;;;;;;14.43;3.42;;;6.50;99.90;;;;;;5069588;28;20462;-63
2022/01/03 07:59:49;;;;;;;14.32;3.10;;;6.50;99.90;;;;;;5074692;28;20036;-61
2022/01/03 08:02:15;;;;;;;10.35;3.45;;;6.50;99.90;;;;;;5070502;28;20040;-62
2022/01/03 08:04:41;;;;;;;23.58;3.40;;;6.50;99.90;;;;;;5083866;28;20040;-61
2022/01/03 08:07:06;;;;;;;;;;;6.50;99.90;;;;;;5074672;28;20529;-61
2022/01/03 08:09:32;;;;;;;8.73;2.15;;;6.50;99.90;;;;;;5081278;28;19920;-61
2022/01/03 08:11:58;;;;;;;;;;;6.50;99.90;;;;;;5073043;28;20493;-60
2022/01/03 08:14:24;;;;;;;13.27;2.60;;;6.60;99.90;;;;;;5081017;28;19920;-61
2022/01/03 08:16:49;;;;;;;12.15;3.47;;;6.50;99.90;;;;;;5077581;28;20059;-59
2022/01/03 08:19:15;;;;;;;12.80;3.38;;;6.40;99.90;;;;;;5078676;28;20040;-61
2022/01/03 08:21:41;;;;;;;;;;;6.40;99.90;;;;;;5078737;28;20081;-62
2022/01/03 08:24:06;;;;;;;7.50;1.85;;;6.30;99.90;;;;;;5082331;28;20002;-63
2022/01/03 08:26:34;;;;;;;;;;;6.30;99.90;;;;;;5077614;28;20040;-62
2022/01/03 08:28:59;;;;;;;;;;;6.30;99.90;;;;;;5080699;28;19923;-61
2022/01/03 08:31:25;;;;;;;10.50;1.83;;;6.30;99.90;;;;;;5084590;28;19924;-63
2022/01/03 08:33:53;;;;;;;9.85;1.85;;;6.30;99.90;;;;;;5077998;28;20076;-63
2022/01/03 08:36:19;;;;;;;8.95;1.65;;;6.30;99.90;;;;;;5081202;28;20040;-63
2022/01/03 08:38:45;;;;;;;10.63;3.33;;;6.30;99.90;;;;;;5077250;28;20046;-62
2022/01/03 08:41:11;;;;;;;7.63;1.75;;;6.30;99.90;;;;;;5076366;28;20040;-62
2022/01/03 08:43:36;;;;;;;8.73;1.90;;;6.30;99.90;;;;;;5076235;28;20170;-60
2022/01/03 08:46:02;;;;;;;;;;;6.40;99.90;;;;;;5080404;28;20520;-62
2022/01/03 08:48:28;;;;;;;12.38;2.72;;;6.40;99.90;;;;;;5072054;28;19946;-61
2022/01/03 08:50:54;;;;;;;10.55;2.25;;;6.40;99.90;;;;;;5081145;28;20060;-66
2022/01/03 08:53:25;;;;;;;16.63;2.38;;;6.50;99.90;;;;;;5073124;28;20064;-62
2022/01/03 08:55:51;;;;;;;18.92;4.85;;;6.60;99.90;;;;;;5063860;28;20040;-61
2022/01/03 08:58:18;;;;;;;18.85;3.55;;;6.60;99.90;;;;;;5071301;28;20101;-62
2022/01/03 09:00:44;;;;;;;13.25;2.95;;;6.60;99.90;;;;;;5068128;28;20054;-61
2022/01/03 09:03:10;;;;;;;13.93;2.30;;;6.70;99.90;;;;;;5069819;28;20043;-63
2022/01/03 09:05:36;;;;;;;11.90;2.78;;;6.70;99.90;;;;;;5064571;28;20037;-62
2022/01/03 09:08:03;;;;;;;10.25;2.92;;;6.60;99.90;;;;;;5072925;28;20115;-62
2022/01/03 09:10:30;;;;;;;10.07;3.17;;;6.60;99.90;;;;;;5078511;28;20036;-62
2022/01/03 09:12:57;;;;;;;9.60;2.42;;;6.70;99.90;;;;;;5070399;28;20032;-62
2022/01/03 09:15:23;;;;;;;8.18;2.58;;;6.70;99.90;;;;;;5078699;28;20056;-62
2022/01/03 09:17:49;;;;;;;20.55;3.55;;;6.80;99.90;;;;;;5068313;28;20109;-61
2022/01/03 09:20:15;;;;;;;;;;;6.80;99.90;;;;;;5083725;28;20040;-62
2022/01/03 09:22:45;;;;;;;17.33;3.45;;;6.80;99.90;;;;;;5071246;28;19920;-64
2022/01/03 09:30:34;;;;;;;17.42;3.38;;;6.90;99.90;;;;;;5071655;28;20044;-63
2022/01/03 09:33:00;;;;;;;12.75;3.17;;;6.90;99.90;;;;;;5071199;28;20036;-61
2022/01/03 09:35:26;;;;;;;15.02;4.05;;;7.00;99.90;;;;;;5080701;28;20044;-62
2022/01/03 09:37:52;;;;;;;;;;;7.10;99.90;;;;;;5071679;28;20097;-62
2022/01/03 09:40:17;;;;;;;15.85;3.45;;;7.00;99.90;;;;;;5061886;28;19959;-62
2022/01/03 09:42:47;;;;;;;21.48;3.75;;;7.00;99.90;;;;;;5063335;28;20036;-60
2022/01/03 09:45:13;;;;;;;17.23;4.20;;;7.00;99.90;;;;;;5064183;28;20039;-59
2022/01/03 09:47:41;;;;;;;;;;;6.90;99.90;;;;;;5066698;28;20154;-60
2022/01/03 09:50:09;;;;;;;12.80;2.78;;;6.90;99.90;;;;;;5079458;28;19920;-62
2022/01/03 09:52:36;;;;;;;14.00;3.83;;;7.00;99.90;;;;;;5075120;28;20048;-60
2022/01/03 09:55:03;;;;;;;15.18;3.50;;;7.00;99.90;;;;;;5067824;28;20075;-61
2022/01/03 09:57:30;;;;;;;13.38;2.90;;;6.90;99.90;;;;;;5068626;28;20040;-61
2022/01/03 09:59:58;;;;;;;16.77;3.67;;;6.90;99.90;;;;;;5073938;28;20048;-62
2022/01/03 10:02:24;;;;;;;12.85;2.30;;;6.90;99.90;;;;;;5069057;28;20037;-61
2022/01/03 10:04:50;;;;;;;10.55;2.17;;;6.80;99.90;;;;;;5068937;28;20041;-61
2022/01/03 10:07:17;;;;;;;;;;;6.90;99.90;;;;;;5068083;28;20098;-62
2022/01/03 10:09:44;;;;;;;9.93;1.95;;;6.90;99.90;;;;;;5080665;28;19973;-62
2022/01/03 10:12:15;;;;;;;6.95;1.92;;;7.00;99.90;;;;;;5068737;28;20436;-61
2022/01/03 10:14:41;;;;;;;6.47;1.63;;;7.10;99.90;;;;;;5081152;28;20072;-61
2022/01/03 10:17:08;;;;;;;17.90;2.95;;;7.20;99.90;;;;;;5072610;28;20045;-62
2022/01/03 10:19:57;;;;;;;10.85;1.80;;;7.20;99.90;;;;;;5070721;28;20036;-62
2022/01/03 10:22:29;;;;;;;11.45;2.20;;;7.20;99.90;;;;;;5065586;28;20042;-62
2022/01/03 10:24:57;;;;;;;8.23;1.67;;;7.20;99.90;;;;;;5072017;28;20124;-61
2022/01/03 10:27:24;;;;;;;9.55;1.88;;;7.00;99.90;;;;;;5065810;28;20036;-62
2022/01/03 10:29:58;;;;;;;9.35;1.98;;;7.00;99.90;;;;;;5077253;28;20035;-62
2022/01/03 10:32:31;;;;;;;13.32;3.05;;;7.00;99.90;;;;;;5066447;28;20032;-61
2022/01/03 10:35:11;;;;;;;7.55;2.28;;;7.00;99.90;;;;;;5068244;28;20064;-62
2022/01/03 10:37:37;;;;;;;8.25;2.10;;;7.00;99.90;;;;;;5060017;28;20056;-60
2022/01/03 10:40:25;;;;;;;;;;;6.90;99.90;;;;;;5077363;28;20036;-61
2022/01/03 10:42:52;;;;;;;9.32;2.20;;;6.90;99.90;;;;;;5065441;28;20376;-62
2022/01/03 10:45:33;;;;;;;6.20;2.17;;;6.90;99.90;;;;;;5083870;28;20456;-63
2022/01/03 10:48:01;;;;;;;11.30;2.33;;;6.90;99.90;;;;;;5069940;28;20048;-61
2022/01/03 10:50:28;;;;;;;13.05;2.28;;;6.90;99.90;;;;;;5065830;28;20040;-62
2022/01/03 10:52:55;;;;;;;8.23;2.40;;;6.90;99.90;;;;;;5059549;28;20786;-61
2022/01/03 10:55:30;;;;;;;14.27;3.05;;;6.90;99.90;;;;;;5062623;28;20749;-62
2022/01/03 10:57:57;;;;;;;11.47;2.23;;;6.90;99.90;;;;;;5061795;28;20035;-61
2022/01/03 11:00:25;;;;;;;13.05;3.42;;;6.90;99.90;;;;;;5065901;28;20040;-62
2022/01/03 11:03:25;;;;;;;23.92;3.38;;;6.90;99.90;;;;;;5067525;28;20044;-62
2022/01/03 11:06:00;;;;;;;9.32;2.88;;;7.00;99.90;;;;;;5065331;28;20040;-61
2022/01/03 11:11:34;;;;;;;12.93;3.25;;;7.00;99.90;;;;;;5007782;28;20057;-61
2022/01/03 11:14:00;;;;;;;18.65;3.50;;;7.00;99.90;;;;;;5070724;28;20047;-61
2022/01/03 11:16:30;;;;;;;;;;;7.10;99.90;;;;;;5061546;28;20044;-62
2022/01/03 11:18:56;;;;;;;10.55;3.38;;;7.10;99.90;;;;;;5060515;28;20011;-62
2022/01/03 11:21:26;;;;;;;;;;;7.00;99.90;;;;;;5065459;28;20304;-61
2022/01/03 11:24:12;;;;;;;23.00;3.65;;;7.00;99.90;;;;;;5069593;28;19916;-63
2022/01/03 11:26:46;;;;;;;11.33;3.90;;;7.10;99.90;;;;;;5073542;28;20095;-61
2022/01/03 11:29:12;;;;;;;12.82;3.90;;;7.10;99.90;;;;;;5075638;28;20035;-61
2022/01/03 11:31:39;;;;;;;17.95;4.97;;;7.10;99.90;;;;;;5063470;28;20499;-62
2022/01/03 11:34:07;;;;;;;12.57;3.55;;;7.10;99.90;;;;;;5071912;28;20169;-63
2022/01/03 11:36:34;;;;;;;21.17;5.05;;;7.10;99.90;;;;;;5069823;28;20036;-61
2022/01/03 11:39:05;;;;;;;10.18;3.30;;;7.20;99.90;;;;;;5074361;28;20089;-62
2022/01/03 11:41:32;;;;;;;20.45;4.78;;;7.20;99.90;;;;;;5074681;28;20452;-62
2022/01/03 11:43:58;;;;;;;15.95;3.50;;;7.30;99.90;;;;;;5076211;28;20059;-60
2022/01/03 11:46:24;;;;;;;;;;;7.30;99.90;;;;;;5075458;28;20047;-62
2022/01/03 11:48:51;;;;;;;20.15;4.15;;;7.30;99.90;;;;;;5076265;28;19920;-61
2022/01/03 11:51:18;;;;;;;11.68;3.40;;;7.30;99.90;;;;;;5070555;28;20063;-62
2022/01/03 11:53:47;;;;;;;15.15;5.63;;;7.40;99.90;;;;;;5068382;28;20032;-60
2022/01/03 11:56:19;;;;;;;16.08;4.57;;;7.40;99.90;;;;;;5068392;28;20048;-61
2022/01/03 12:04:40;;;;;;;14.05;4.00;;;7.70;99.90;;;;;;5075177;28;20032;-62
2022/01/03 12:07:08;;;;;;;18.00;4.03;;;7.70;99.90;;;;;;5066179;28;20045;-66
2022/01/03 12:09:37;;;;;;;18.20;4.97;;;7.70;99.90;;;;;;5076234;28;20068;-60
2022/01/03 12:12:04;;;;;;;16.75;4.25;;;7.70;99.90;;;;;;5071461;28;20032;-62
2022/01/03 12:14:43;;;;;;;17.60;4.57;;;7.70;99.90;;;;;;5081089;28;20076;-59
2022/01/03 12:17:10;;;;;;;19.80;4.20;;;7.60;99.90;;;;;;5070527;28;20098;-61
2022/01/03 12:19:42;;;;;;;21.85;4.65;;;7.60;99.90;;;;;;5082554;28;20041;-63
2022/01/03 12:22:10;;;;;;;16.05;3.72;;;7.60;99.90;;;;;;5075463;28;20044;-61
2022/01/03 12:24:36;;;;;;;18.33;4.15;;;7.60;99.90;;;;;;5074003;28;20086;-59
2022/01/03 12:27:10;;;;;;;;;;;7.60;99.90;;;;;;5070164;28;20048;-60
2022/01/03 12:29:57;;;;;;;14.00;3.70;;;7.60;99.90;;;;;;5083552;28;19928;-62
2022/01/03 12:32:25;;;;;;;20.52;4.55;;;7.60;99.90;;;;;;5068058;28;20036;-62
2022/01/03 12:35:23;;;;;;;17.25;4.32;;;7.60;99.90;;;;;;5074025;28;20036;-62
2022/01/03 12:37:54;;;;;;;18.10;3.97;;;7.50;99.90;;;;;;5064642;28;20070;-61
2022/01/03 12:40:29;;;;;;;12.60;3.45;;;7.50;99.90;;;;;;5080064;28;20101;-61
2022/01/03 12:42:58;;;;;;;22.73;3.88;;;7.50;99.90;;;;;;5068199;28;20048;-63
2022/01/03 12:45:30;;;;;;;16.42;3.80;;;7.50;99.90;;;;;;5069795;28;20040;-61
2022/01/03 12:48:08;;;;;;;11.27;3.60;;;7.40;99.90;;;;;;5071993;28;20477;-59
2022/01/03 12:50:44;;;;;;;17.38;3.20;;;7.40;99.90;;;;;;5074439;28;20127;-60
2022/01/03 12:53:37;;;;;;;15.32;3.95;;;7.40;99.90;;;;;;5071869;28;20035;-62
2022/01/03 12:56:11;;;;;;;12.32;2.97;;;7.40;99.90;;;;;;5066271;28;20110;-60
2022/01/03 12:58:39;;;;;;;13.27;3.20;;;7.40;99.90;;;;;;5072999;28;20037;-62
2022/01/03 13:01:11;;;;;;;19.27;5.15;;;7.50;99.90;;;;;;5072026;28;20664;-61
2022/01/03 13:03:39;;;;;;;14.23;4.13;;;7.40;99.90;;;;;;5062615;28;20531;-62
2022/01/03 13:06:24;;;;;;;15.65;3.60;;;7.50;99.90;;;;;;5070545;28;20040;-60
2022/01/03 13:08:56;;;;;;;14.25;3.95;;;7.50;99.90;;;;;;5071638;28;20035;-61
2022/01/03 13:11:27;;;;;;;13.70;4.05;;;7.40;99.90;;;;;;5077483;28;20063;-62
2022/01/03 13:13:56;;;;;;;15.18;3.85;;;7.40;99.90;;;;;;5077429;28;20040;-62
2022/01/03 13:16:30;;;;;;;13.27;3.63;;;7.30;99.90;;;;;;5089769;28;20427;-62
2022/01/03 13:19:01;;;;;;;12.45;3.45;;;7.30;99.90;;;;;;5082807;28;20032;-61
2022/01/03 13:21:30;;;;;;;16.55;3.58;;;7.30;99.90;;;;;;5074610;28;20052;-61
2022/01/03 13:23:59;;;;;;;18.15;3.83;;;7.20;99.90;;;;;;5069348;28;20081;-61
2022/01/03 13:26:26;;;;;;;18.17;2.35;;;7.00;99.90;;;;;;5075852;28;20052;-62
2022/01/03 13:28:55;;;;;;;13.95;2.85;;;6.90;99.90;;;;;;5076820;28;20047;-61
2022/01/03 13:31:21;;;;;;;6.25;1.98;;;6.80;99.90;;;;;;5076447;28;20142;-60